createdAt,value
2023-02-22T00:01:23.386Z,13.30
2023-02-22T00:16:26.703Z,10.00
2023-02-22T00:31:28.769Z,8.73
2023-02-22T00:46:30.817Z,13.48
2023-02-22T01:01:32.872Z,15.68
2023-02-22T01:16:35.717Z,8.40
2023-02-22T01:31:37.802Z,11.45
2023-02-22T01:46:39.818Z,10.35
2023-02-22T02:01:45.784Z,7.57
2023-02-22T02:16:53.686Z,7.40
2023-02-22T02:32:11.802Z,5.82
2023-02-22T02:47:37.883Z,5.20
2023-02-22T03:03:05.420Z,4.47
2023-02-22T03:18:18.015Z,4.07
2023-02-22T03:33:29.073Z,6.50
2023-02-22T03:48:40.063Z,8.48
2023-02-22T04:03:42.889Z,8.10
2023-02-22T04:18:44.923Z,5.88
2023-02-22T04:33:47.033Z,5.70
2023-02-22T04:48:50.515Z,5.85
2023-02-22T05:03:52.595Z,5.22
2023-02-22T05:18:54.916Z,9.20
2023-02-22T05:33:58.203Z,7.70
2023-02-22T05:49:00.250Z,9.95
2023-02-22T06:04:02.289Z,13.65
2023-02-22T06:19:04.376Z,10.43
2023-02-22T06:34:06.459Z,5.65
2023-02-22T06:49:08.533Z,6.43
2023-02-22T07:04:10.552Z,10.63
2023-02-22T07:19:12.662Z,9.38
2023-02-22T07:34:14.656Z,10.88
2023-02-22T07:49:17.401Z,6.00
2023-02-22T08:04:19.342Z,5.47
2023-02-22T08:19:21.408Z,7.18
2023-02-22T08:34:25.018Z,9.48
2023-02-22T08:49:27.049Z,7.50
2023-02-22T09:04:29.139Z,8.25
2023-02-22T09:19:31.115Z,9.02
2023-02-22T09:34:35.651Z,8.10
2023-02-22T09:49:47.609Z,6.00
2023-02-22T10:05:06.078Z,7.25
2023-02-22T10:20:32.357Z,7.25
2023-02-22T10:35:37.663Z,4.60
2023-02-22T10:50:43.876Z,5.53
2023-02-22T11:05:46.201Z,5.53
2023-02-22T11:20:48.485Z,2.60
2023-02-22T11:36:02.707Z,2.53
2023-02-22T11:51:15.825Z,2.92
2023-02-22T12:06:57.256Z,6.20
2023-02-22T12:22:03.760Z,3.53
2023-02-22T12:37:24.731Z,5.05
2023-02-22T12:52:46.200Z,7.57
2023-02-22T13:07:54.828Z,3.90
2023-02-22T13:23:37.552Z,5.22
2023-02-22T13:39:01.261Z,5.75
2023-02-22T13:54:09.284Z,5.22
2023-02-22T14:09:20.322Z,12.57
2023-02-22T14:24:22.318Z,4.82
2023-02-22T14:39:52.073Z,5.13
2023-02-22T14:55:16.243Z,9.00
2023-02-22T15:10:28.965Z,8.75
2023-02-22T15:25:31.732Z,10.68
2023-02-22T15:40:34.953Z,8.23
2023-02-22T15:55:43.989Z,5.72
2023-02-22T16:11:13.613Z,10.85
2023-02-22T16:26:33.870Z,9.23
2023-02-22T16:41:36.733Z,8.70
2023-02-22T16:56:41.392Z,7.05
2023-02-22T17:11:44.731Z,9.25
2023-02-22T17:26:47.392Z,9.55
2023-02-22T17:41:55.349Z,22.88
2023-02-22T17:56:58.480Z,19.73
2023-02-22T18:12:01.455Z,14.20
2023-02-22T18:27:07.074Z,12.30
2023-02-22T18:42:12.425Z,13.95
2023-02-22T18:57:14.957Z,14.93
2023-02-22T19:12:18.337Z,13.48
2023-02-22T19:27:22.626Z,14.48
2023-02-22T19:42:25.782Z,13.18
2023-02-22T19:57:30.325Z,7.50
2023-02-22T20:12:32.894Z,10.27
2023-02-22T20:27:37.037Z,10.40
2023-02-22T20:42:41.406Z,9.35
2023-02-22T20:57:44.512Z,9.30
2023-02-22T21:12:48.573Z,9.63
2023-02-22T21:27:51.605Z,8.93
2023-02-22T21:42:54.268Z,8.98
2023-02-22T21:57:56.454Z,9.65
2023-02-22T22:12:58.569Z,11.10
2023-02-22T22:28:01.400Z,13.32
2023-02-22T22:43:03.404Z,13.73
2023-02-22T22:58:05.413Z,13.45
2023-02-22T23:13:15.890Z,13.98
2023-02-22T23:28:18.601Z,15.73
2023-02-22T23:43:20.762Z,16.33
2023-02-22T23:58:23.588Z,16.40
